Time;durP1;ratioP1;P1;durP2;ratioP2;P2;SDS_P1;SDS_P2;PMS_P1;PMS_P2;Temp;Humidity;BMP_temperature;BMP_pressure;BME280_temperature;BME280_humidity;BME280_pressure;Samples;Min_cycle;Max_cycle;Signal;HPM_P1;HPM_P2
2022/03/07 00:00:36;;;;;;;;;;;;;;;16.73;41.05;100822.38;5078895;28;813;-56
2022/03/07 00:03:02;;;;;;;;;;;;;;;17.19;40.00;100818.81;5078926;28;911;-56
2022/03/07 00:05:27;;;;;;;;;;;;;;;17.46;39.68;100820.44;5078923;28;811;-56
2022/03/07 00:07:53;;;;;;;;;;;;;;;17.54;39.42;100830.03;5078333;28;1221;-57
2022/03/07 00:10:18;;;;;;;;;;;;;;;17.71;38.84;100826.97;5078470;28;1292;-55
2022/03/07 00:12:44;;;;;;;;;;;;;;;17.19;39.84;100837.25;5078479;28;1987;-57
2022/03/07 00:15:09;;;;;;;;;;;;;;;16.96;40.38;100814.72;5078472;28;1047;-56
2022/03/07 00:17:34;;;;;;;;;;;;;;;16.71;41.09;100815.53;5078368;28;777;-55
2022/03/07 00:20:00;;;;;;;;;;;;;;;16.57;40.97;100817.97;5079054;28;898;-56
2022/03/07 00:22:25;;;;;;;;;;;;;;;16.50;41.37;100810.00;5078466;28;989;-55
2022/03/07 00:24:51;;;;;;;;;;;;;;;16.56;41.66;100813.56;5078585;28;748;-55
2022/03/07 00:27:16;;;;;;;;;;;;;;;16.69;41.32;100796.56;5078434;28;821;-55
2022/03/07 00:29:42;;;;;;;;;;;;;;;16.85;40.68;100799.31;5078052;28;756;-56
2022/03/07 00:32:07;;;;;;;;;;;;;;;16.95;40.85;100790.28;5078396;28;1906;-56
2022/03/07 00:34:32;;;;;;;;;;;;;;;17.52;39.35;100780.03;5076863;28;773;-56
2022/03/07 00:36:58;;;;;;;;;;;;;;;17.20;39.78;100776.50;5078150;28;782;-56
2022/03/07 00:39:23;;;;;;;;;;;;;;;16.72;40.74;100778.72;5078565;28;777;-56
2022/03/07 00:41:49;;;;;;;;;;;;;;;16.57;40.89;100776.78;5077505;28;1001;-55
2022/03/07 00:44:15;;;;;;;;;;;;;;;16.71;41.32;100775.16;5078014;28;872;-55
2022/03/07 00:46:41;;;;;;;;;;;;;;;17.03;40.46;100768.56;5077956;28;899;-55
2022/03/07 00:49:06;;;;;;;;;;;;;;;17.52;39.24;100766.28;5077750;28;770;-56
2022/03/07 00:51:32;;;;;;;;;;;;;;;16.99;40.55;100772.16;5077762;28;1913;-58
2022/03/07 00:53:57;;;;;;;;;;;;;;;16.76;40.72;100769.66;5077856;28;778;-57
2022/03/07 00:56:23;;;;;;;;;;;;;;;16.54;41.09;100774.59;5077860;28;820;-55
2022/03/07 00:58:48;;;;;;;;;;;;;;;16.53;41.57;100759.22;5077997;28;942;-56
2022/03/07 01:01:14;;;;;;;;;;;;;;;16.57;41.47;100763.06;5077634;28;866;-56
2022/03/07 01:03:40;;;;;;;;;;;;;;;16.72;41.11;100768.56;5110456;28;1103;-57
2022/03/07 01:06:06;;;;;;;;;;;;;;;17.06;40.36;100768.00;5078468;28;819;-55
2022/03/07 01:08:31;;;;;;;;;;;;;;;17.53;39.56;100774.25;5076995;28;844;-55
2022/03/07 01:10:57;;;;;;;;;;;;;;;17.65;39.15;100768.41;5110175;28;1909;-56
2022/03/07 01:13:22;;;;;;;;;;;;;;;17.43;39.33;100772.34;5077732;28;825;-55
2022/03/07 01:15:48;;;;;;;;;;;;;;;16.89;40.32;100762.81;5077035;28;1055;-55
2022/03/07 01:18:13;;;;;;;;;;;;;;;16.66;40.88;100766.09;5077550;28;795;-56
2022/03/07 01:20:39;;;;;;;;;;;;;;;16.57;41.58;100758.41;5076996;28;852;-55
2022/03/07 01:23:04;;;;;;;;;;;;;;;16.77;41.19;100764.97;5077056;28;829;-55
2022/03/07 01:25:30;;;;;;;;;;;;;;;16.98;40.83;100763.06;5077610;28;785;-56
2022/03/07 01:27:55;;;;;;;;;;;;;;;17.69;39.28;100758.50;5077271;28;806;-56
2022/03/07 01:30:21;;;;;;;;;;;;;;;17.84;38.45;100748.50;5077241;28;1397;-57
2022/03/07 01:32:46;;;;;;;;;;;;;;;17.27;39.87;100754.25;5076498;28;1918;-57
2022/03/07 01:35:12;;;;;;;;;;;;;;;16.86;40.32;100749.63;5076741;28;887;-56
2022/03/07 01:37:37;;;;;;;;;;;;;;;16.68;40.63;100748.25;5076908;28;1104;-56
2022/03/07 01:40:03;;;;;;;;;;;;;;;16.58;41.18;100737.28;5077566;28;825;-56
2022/03/07 01:42:29;;;;;;;;;;;;;;;16.71;41.10;100746.88;5077156;28;885;-56
2022/03/07 01:45:10;;;;;;;;;;;;;;;16.70;41.09;100757.00;5109385;28;1219;-58
2022/03/07 01:47:35;;;;;;;;;;;;;;;16.86;40.79;100743.31;5107590;28;801;-57
2022/03/07 01:50:01;;;;;;;;;;;;;;;17.10;40.35;100749.88;5077175;28;741;-57
2022/03/07 01:52:26;;;;;;;;;;;;;;;17.36;39.54;100744.34;5075295;28;1913;-56
2022/03/07 01:54:52;;;;;;;;;;;;;;;17.75;38.65;100740.03;5109619;28;1116;-58
2022/03/07 01:57:18;;;;;;;;;;;;;;;17.62;38.95;100730.47;5109454;28;1303;-58
2022/03/07 01:59:44;;;;;;;;;;;;;;;17.03;40.24;100735.59;5074924;28;1078;-58
2022/03/07 02:02:09;;;;;;;;;;;;;;;16.81;40.59;100732.31;5108889;28;824;-57
2022/03/07 02:04:39;;;;;;;;;;;;;;;16.62;41.09;100729.28;5109399;28;1352;-57
2022/03/07 02:07:06;;;;;;;;;;;;;;;16.67;41.04;100732.84;5091211;28;1296;-57
2022/03/07 02:09:34;;;;;;;;;;;;;;;16.69;41.17;100736.16;5109359;28;1392;-57
2022/03/07 02:11:59;;;;;;;;;;;;;;;16.83;40.70;100730.94;5108471;28;1905;-56
2022/03/07 02:14:24;;;;;;;;;;;;;;;17.02;40.16;100736.69;5076277;28;864;-57
2022/03/07 02:16:55;;;;;;;;;;;;;;;17.16;39.85;100738.88;5074982;28;1149;-58
2022/03/07 02:19:20;;;;;;;;;;;;;;;17.56;38.98;100737.13;5076140;28;1217;-57
2022/03/07 02:21:47;;;;;;;;;;;;;;;17.40;39.11;100737.19;5076072;28;872;-57
2022/03/07 02:24:18;;;;;;;;;;;;;;;16.93;39.97;100739.19;5108934;28;1153;-56
2022/03/07 02:27:00;;;;;;;;;;;;;;;16.72;40.37;100740.28;5075033;28;1189;-57
2022/03/07 02:29:26;;;;;;;;;;;;;;;16.49;41.33;100747.13;5074545;28;1216;-56
2022/03/07 02:31:53;;;;;;;;;;;;;;;16.79;40.65;100740.00;5108434;28;2096;-56
2022/03/07 02:34:21;;;;;;;;;;;;;;;17.07;40.10;100750.44;5108799;28;1398;-56
2022/03/07 02:36:46;;;;;;;;;;;;;;;17.75;38.64;100743.63;5108608;28;1141;-56
2022/03/07 02:39:12;;;;;;;;;;;;;;;17.91;38.21;100751.84;5076354;28;779;-56
2022/03/07 02:41:38;;;;;;;;;;;;;;;17.24;39.33;100752.06;5108447;28;1147;-57
2022/03/07 02:44:04;;;;;;;;;;;;;;;16.79;40.47;100746.31;5074689;28;1505;-56
2022/03/07 02:46:29;;;;;;;;;;;;;;;16.62;40.81;100732.03;5107351;28;1003;-57
2022/03/07 02:48:55;;;;;;;;;;;;;;;16.60;41.18;100732.31;5107977;28;1313;-56
2022/03/07 02:51:20;;;;;;;;;;;;;;;16.69;41.01;100740.81;5108809;28;2310;-56
2022/03/07 02:53:46;;;;;;;;;;;;;;;16.76;40.72;100741.38;5108589;28;1146;-57
2022/03/07 02:56:11;;;;;;;;;;;;;;;16.94;40.27;100737.25;5075651;28;810;-56
2022/03/07 02:58:37;;;;;;;;;;;;;;;17.16;39.77;100744.38;5076011;28;852;-58
2022/03/07 03:01:02;;;;;;;;;;;;;;;17.61;38.90;100745.31;5075415;28;860;-57
2022/03/07 03:03:28;;;;;;;;;;;;;;;17.59;38.59;100748.34;5075280;28;953;-57
2022/03/07 03:05:54;;;;;;;;;;;;;;;17.12;39.53;100746.03;5076361;28;930;-56
2022/03/07 03:08:20;;;;;;;;;;;;;;;16.74;40.26;100749.88;5075701;28;1196;-56
2022/03/07 03:10:46;;;;;;;;;;;;;;;16.62;40.96;100757.59;5075900;28;727;-56
2022/03/07 03:13:12;;;;;;;;;;;;;;;16.71;40.63;100749.63;5076001;28;1906;-57
2022/03/07 03:15:37;;;;;;;;;;;;;;;16.85;40.34;100753.44;5075191;28;1255;-56
2022/03/07 03:18:02;;;;;;;;;;;;;;;17.28;39.36;100747.66;5075325;28;849;-56
2022/03/07 03:20:28;;;;;;;;;;;;;;;17.55;38.66;100751.97;5075874;28;853;-55
2022/03/07 03:22:53;;;;;;;;;;;;;;;17.69;38.46;100753.00;5076059;28;830;-57
2022/03/07 03:25:19;;;;;;;;;;;;;;;17.53;38.66;100748.66;5074136;28;908;-56
2022/03/07 03:27:44;;;;;;;;;;;;;;;17.02;39.77;100750.44;5075533;28;885;-56
2022/03/07 03:30:10;;;;;;;;;;;;;;;16.83;40.41;100757.56;5075573;28;918;-56
2022/03/07 03:32:35;;;;;;;;;;;;;;;16.64;40.53;100760.88;5075411;28;1989;-57
2022/03/07 03:35:01;;;;;;;;;;;;;;;16.80;40.46;100769.09;5075843;28;807;-57
2022/03/07 03:37:26;;;;;;;;;;;;;;;16.94;40.11;100764.72;5075752;28;851;-57
2022/03/07 03:39:53;;;;;;;;;;;;;;;17.40;39.05;100750.06;5075347;28;1076;-56
2022/03/07 03:42:18;;;;;;;;;;;;;;;17.67;38.45;100760.72;5075708;28;789;-57
2022/03/07 03:44:43;;;;;;;;;;;;;;;17.83;38.29;100768.91;5075621;28;749;-58
2022/03/07 03:47:09;;;;;;;;;;;;;;;17.24;39.46;100752.88;5075329;28;1366;-58
2022/03/07 03:49:34;;;;;;;;;;;;;;;16.89;39.83;100751.03;5075789;28;816;-57
2022/03/07 03:52:00;;;;;;;;;;;;;;;16.63;40.33;100750.16;5075079;28;2003;-56
2022/03/07 03:54:25;;;;;;;;;;;;;;;16.59;40.60;100747.13;5107963;28;955;-56
2022/03/07 03:56:51;;;;;;;;;;;;;;;17.09;39.61;100742.72;5076719;28;817;-58
2022/03/07 03:59:16;;;;;;;;;;;;;;;17.42;38.99;100759.69;5078965;28;837;-57
2022/03/07 04:01:45;;;;;;;;;;;;;;;18.10;37.38;100747.31;5078679;28;891;-57
2022/03/07 04:04:11;;;;;;;;;;;;;;;17.72;37.97;100754.34;5079044;28;837;-57
2022/03/07 04:06:36;;;;;;;;;;;;;;;17.10;39.47;100746.31;5078750;28;740;-56
2022/03/07 04:09:05;;;;;;;;;;;;;;;16.72;40.17;100754.84;5078797;28;824;-56
2022/03/07 04:11:30;;;;;;;;;;;;;;;16.57;40.64;100749.34;5078770;28;1978;-56
2022/03/07 04:13:56;;;;;;;;;;;;;;;16.48;41.11;100761.94;5078821;28;1048;-56
2022/03/07 04:16:22;;;;;;;;;;;;;;;16.80;40.16;100758.94;5078187;28;1000;-55
2022/03/07 04:18:47;;;;;;;;;;;;;;;16.89;40.21;100762.00;5078275;28;774;-58
2022/03/07 04:21:14;;;;;;;;;;;;;;;17.10;39.55;100762.81;5078702;28;766;-57
2022/03/07 04:23:39;;;;;;;;;;;;;;;17.50;38.95;100754.72;5078807;28;825;-57
2022/03/07 04:26:05;;;;;;;;;;;;;;;17.77;38.24;100752.41;5078110;28;848;-57
2022/03/07 04:28:30;;;;;;;;;;;;;;;17.92;38.04;100756.22;5079073;28;886;-57
2022/03/07 04:30:55;;;;;;;;;;;;;;;17.48;38.49;100752.25;5077901;28;1905;-57
2022/03/07 04:33:21;;;;;;;;;;;;;;;17.16;39.44;100761.69;5078414;28;889;-57
2022/03/07 04:35:46;;;;;;;;;;;;;;;16.92;39.71;100756.75;5078111;28;863;-57
2022/03/07 04:38:12;;;;;;;;;;;;;;;16.84;40.00;100745.50;5078657;28;880;-57
2022/03/07 04:40:37;;;;;;;;;;;;;;;17.13;39.71;100756.75;5077971;28;885;-55
2022/03/07 04:43:03;;;;;;;;;;;;;;;17.99;37.57;100745.72;5078464;28;774;-55
2022/03/07 04:45:28;;;;;;;;;;;;;;;17.68;38.06;100762.34;5077899;28;818;-56
2022/03/07 04:47:53;;;;;;;;;;;;;;;17.10;39.04;100758.13;5077898;28;730;-56
2022/03/07 04:50:19;;;;;;;;;;;;;;;16.75;40.11;100758.97;5078371;28;801;-54
2022/03/07 04:52:44;;;;;;;;;;;;;;;16.76;40.18;100763.34;5078403;28;1909;-54
2022/03/07 04:55:11;;;;;;;;;;;;;;;16.99;39.64;100751.00;5076159;28;1423;-56
2022/03/07 04:57:36;;;;;;;;;;;;;;;17.31;39.13;100757.28;5076286;28;1403;-57
2022/03/07 05:00:03;;;;;;;;;;;;;;;17.72;38.04;100757.91;5076060;28;1348;-57
2022/03/07 05:02:28;;;;;;;;;;;;;;;17.91;37.60;100755.41;5075909;28;1136;-57
2022/03/07 05:04:57;;;;;;;;;;;;;;;17.81;37.85;100765.59;5076279;28;1344;-57
2022/03/07 05:07:22;;;;;;;;;;;;;;;17.35;38.83;100745.44;5075692;28;1573;-57
2022/03/07 05:09:48;;;;;;;;;;;;;;;17.10;39.36;100754.56;5076848;28;1262;-56
2022/03/07 05:12:13;;;;;;;;;;;;;;;16.72;39.92;100746.59;5077978;28;1986;-58
2022/03/07 05:14:38;;;;;;;;;;;;;;;16.72;39.98;100746.59;5077497;28;1352;-57
2022/03/07 05:17:04;;;;;;;;;;;;;;;16.81;40.23;100741.38;5066933;28;1227;-57
2022/03/07 05:19:29;;;;;;;;;;;;;;;17.36;39.17;100744.34;5065183;28;918;-57
2022/03/07 05:21:55;;;;;;;;;;;;;;;18.40;36.75;100745.47;5057106;28;844;-57
2022/03/07 05:24:20;;;;;;;;;;;;;;;17.69;37.70;100753.00;5039674;28;825;-57
2022/03/07 05:26:46;;;;;;;;;;;;;;;17.12;39.15;100751.53;5057997;28;912;-58
2022/03/07 05:29:11;;;;;;;;;;;;;;;16.72;40.04;100743.84;5057955;28;731;-57
2022/03/07 05:31:37;;;;;;;;;;;;;;;16.71;40.12;100744.94;5056751;28;1898;-58
2022/03/07 05:34:03;;;;;;;;;;;;;;;16.64;40.18;100738.91;5057716;28;853;-58
2022/03/07 05:36:28;;;;;;;;;;;;;;;16.77;40.15;100738.38;5057334;28;1058;-57
2022/03/07 05:38:54;;;;;;;;;;;;;;;16.85;39.88;100739.72;5057182;28;1426;-57
2022/03/07 05:41:19;;;;;;;;;;;;;;;17.06;39.36;100735.03;5057000;28;905;-58
2022/03/07 05:43:44;;;;;;;;;;;;;;;17.22;39.03;100727.59;5057190;28;861;-57
2022/03/07 05:46:10;;;;;;;;;;;;;;;17.68;38.17;100728.53;5056840;28;879;-58
2022/03/07 05:48:35;;;;;;;;;;;;;;;17.55;38.34;100739.03;5056785;28;869;-59
2022/03/07 05:51:01;;;;;;;;;;;;;;;17.07;39.12;100742.19;5062887;28;1981;-60
2022/03/07 05:53:26;;;;;;;;;;;;;;;16.71;39.88;100744.13;5062516;28;1432;-57
2022/03/07 05:55:52;;;;;;;;;;;;;;;16.65;40.13;100746.06;5065782;28;1330;-58
2022/03/07 05:58:17;;;;;;;;;;;;;;;16.89;39.74;100749.09;5057047;28;742;-60
2022/03/07 06:00:43;;;;;;;;;;;;;;;17.22;38.80;100740.50;5056565;28;935;-58
2022/03/07 06:03:08;;;;;;;;;;;;;;;17.96;37.66;100749.03;5057080;28;742;-57
2022/03/07 06:05:34;;;;;;;;;;;;;;;18.12;37.02;100756.09;5057052;28;807;-58
2022/03/07 06:07:59;;;;;;;;;;;;;;;17.78;37.83;100756.81;5056728;28;838;-57
2022/03/07 06:10:25;;;;;;;;;;;;;;;17.35;38.69;100772.06;5057300;28;730;-57
2022/03/07 06:12:50;;;;;;;;;;;;;;;17.03;39.15;100763.06;5056294;28;1913;-59
2022/03/07 06:15:16;;;;;;;;;;;;;;;16.74;40.13;100760.84;5059612;28;1328;-57
2022/03/07 06:18:08;;;;;;;;;;;;;;;16.60;40.45;100760.59;5076351;28;857;-57
2022/03/07 06:20:33;;;;;;;;;;;;;;;16.83;39.82;100769.41;5070965;28;1752;-59
2022/03/07 06:23:00;;;;;;;;;;;;;;;17.17;39.21;100770.75;5076077;28;1408;-57
2022/03/07 06:25:26;;;;;;;;;;;;;;;17.51;38.71;100762.69;5108790;28;781;-58
2022/03/07 06:27:51;;;;;;;;;;;;;;;17.78;38.03;100759.56;5076538;28;742;-57
2022/03/07 06:30:17;;;;;;;;;;;;;;;17.73;38.02;100767.00;5081057;28;1391;-54
2022/03/07 06:32:42;;;;;;;;;;;;;;;17.14;39.14;100763.88;5075349;28;1926;-56
2022/03/07 06:35:08;;;;;;;;;;;;;;;16.97;39.51;100766.94;5075837;28;1135;-56
2022/03/07 06:37:33;;;;;;;;;;;;;;;16.79;40.08;100762.81;5076873;28;1281;-56
2022/03/07 06:39:58;;;;;;;;;;;;;;;16.94;40.07;100764.72;5077661;28;1249;-56
2022/03/07 06:42:24;;;;;;;;;;;;;;;16.93;39.93;100772.16;5077292;28;1487;-58
2022/03/07 06:44:49;;;;;;;;;;;;;;;17.14;39.65;100763.88;5074706;28;1175;-57
2022/03/07 06:47:16;;;;;;;;;;;;;;;17.33;39.41;100766.84;5074443;28;1201;-57
2022/03/07 06:49:42;;;;;;;;;;;;;;;17.37;39.13;100759.69;5076062;28;1447;-56
2022/03/07 06:52:08;;;;;;;;;;;;;;;17.32;39.31;100753.41;5073979;28;1913;-59
2022/03/07 06:54:34;;;;;;;;;;;;;;;17.19;39.60;100755.63;5076194;28;1447;-58
2022/03/07 06:56:59;;;;;;;;;;;;;;;16.89;40.26;100753.75;5069191;28;1375;-56
2022/03/07 06:59:25;;;;;;;;;;;;;;;16.80;40.41;100756.19;5075111;28;1413;-57
2022/03/07 07:01:51;;;;;;;;;;;;;;;16.81;40.43;100744.13;5076203;28;1470;-57
2022/03/07 07:04:17;;;;;;;;;;;;;;;16.69;41.39;100749.06;5075332;28;1157;-58
2022/03/07 07:06:42;;;;;;;;;;;;;;;17.40;38.90;100748.16;5077128;28;1186;-59
2022/03/07 07:09:08;;;;;;;;;;;;;;;17.00;40.14;100747.16;5081166;28;1392;-58
2022/03/07 07:11:33;;;;;;;;;;;;;;;16.72;40.55;100741.09;5088214;28;1980;-58
2022/03/07 07:13:59;;;;;;;;;;;;;;;16.57;40.91;100754.84;5075394;28;1368;-56
2022/03/07 07:16:24;;;;;;;;;;;;;;;18.03;38.20;100746.78;5075090;28;1582;-58
2022/03/07 07:18:50;;;;;;;;;;;;;;;17.70;38.58;100743.66;5072725;28;1302;-61
2022/03/07 07:21:15;;;;;;;;;;;;;;;17.17;39.77;100752.34;5076129;28;1274;-55
2022/03/07 07:23:42;;;;;;;;;;;;;;;16.85;39.74;100749.88;5067638;28;1609;-56
2022/03/07 07:26:07;;;;;;;;;;;;;;;16.54;40.15;100750.72;5080681;28;1330;-57
2022/03/07 07:28:33;;;;;;;;;;;;;;;17.34;39.74;100752.03;5074460;28;1598;-57
2022/03/07 07:30:58;;;;;;;;;;;;;;;17.22;39.89;100751.50;5074765;28;1249;-57
2022/03/07 07:33:23;;;;;;;;;;;;;;;16.77;40.34;100745.75;5078550;28;1930;-58
2022/03/07 07:35:49;;;;;;;;;;;;;;;16.72;40.82;100745.78;5078425;28;1541;-58
2022/03/07 07:38:14;;;;;;;;;;;;;;;16.65;40.94;100736.97;5079125;28;1313;-57
2022/03/07 07:40:40;;;;;;;;;;;;;;;16.97;40.71;100739.47;5078506;28;1486;-58
2022/03/07 07:43:05;;;;;;;;;;;;;;;16.75;40.97;100729.56;5078125;28;1225;-60
2022/03/07 07:45:31;;;;;;;;;;;;;;;16.59;41.18;100737.00;5077924;28;1219;-59
2022/03/07 07:47:58;;;;;;;;;;;;;;;16.69;41.17;100747.16;5078202;28;1200;-59
2022/03/07 07:50:23;;;;;;;;;;;;;;;16.82;41.06;100733.97;5081806;28;1470;-61
2022/03/07 07:52:49;;;;;;;;;;;;;;;17.15;40.03;100729.00;5078387;28;1918;-61
2022/03/07 07:55:14;;;;;;;;;;;;;;;17.37;39.52;100734.97;5079742;28;1140;-60
2022/03/07 07:57:40;;;;;;;;;;;;;;;17.56;39.32;100721.44;5082274;28;1569;-58
2022/03/07 08:00:05;;;;;;;;;;;;;;;17.63;39.05;100726.63;5075679;28;1417;-61
2022/03/07 08:02:37;;;;;;;;;;;;;;;17.03;40.17;100727.38;5078856;28;1018;-61
2022/03/07 08:05:03;;;;;;;;;;;;;;;16.85;40.78;100727.91;5081295;28;1406;-59
2022/03/07 08:07:29;;;;;;;;;;;;;;;16.73;40.89;100720.78;5078019;28;1067;-61
2022/03/07 08:09:54;;;;;;;;;;;;;;;16.85;40.67;100716.94;5080835;28;1356;-60
2022/03/07 08:12:20;;;;;;;;;;;;;;;16.86;40.89;100724.91;5078660;28;1978;-59
2022/03/07 08:14:45;;;;;;;;;;;;;;;16.88;40.80;100714.47;5077601;28;845;-60
2022/03/07 08:17:11;;;;;;;;;;;;;;;17.07;40.36;100709.22;5079271;28;1278;-59
2022/03/07 08:19:37;;;;;;;;;;;;;;;17.10;40.07;100730.63;5077966;28;1291;-58
2022/03/07 08:22:03;;;;;;;;;;;;;;;17.07;40.10;100725.72;5109436;28;1285;-61
2022/03/07 08:24:28;;;;;;;;;;;;;;;16.76;40.89;100725.72;5077965;28;1321;-59
2022/03/07 08:26:53;;;;;;;;;;;;;;;16.89;40.78;100729.03;5077427;28;1247;-55
2022/03/07 08:29:19;;;;;;;;;;;;;;;16.82;40.79;100728.47;5079076;28;1345;-57
2022/03/07 08:31:44;;;;;;;;;;;;;;;16.91;40.36;100727.66;5081644;28;1980;-57
2022/03/07 08:34:10;;;;;;;;;;;;;;;16.95;40.38;100727.94;5072574;28;1280;-56
2022/03/07 08:36:35;;;;;;;;;;;;;;;17.03;40.41;100741.09;5079195;28;1364;-57
2022/03/07 08:39:00;;;;;;;;;;;;;;;17.17;40.13;100729.53;5077694;28;1221;-57
2022/03/07 08:41:26;;;;;;;;;;;;;;;17.04;40.40;100730.91;5077476;28;1263;-59
2022/03/07 08:43:52;;;;;;;;;;;;;;;16.81;40.65;100726.81;5075521;28;1440;-57
2022/03/07 08:46:18;;;;;;;;;;;;;;;16.71;40.97;100739.44;5076838;28;1431;-58
2022/03/07 08:48:43;;;;;;;;;;;;;;;16.68;40.75;100734.50;5082282;28;1418;-58
2022/03/07 08:51:09;;;;;;;;;;;;;;;17.02;40.82;100733.94;5076864;28;1905;-58
2022/03/07 08:53:34;;;;;;;;;;;;;;;17.77;38.70;100732.34;5076366;28;1235;-58
2022/03/07 08:56:00;;;;;;;;;;;;;;;17.33;39.52;100733.88;5076867;28;1136;-59
2022/03/07 08:58:25;;;;;;;;;;;;;;;17.00;40.18;100733.41;5076985;28;1387;-58
2022/03/07 09:00:51;;;;;;;;;;;;;;;16.64;40.95;100730.66;5076079;28;1628;-59
2022/03/07 09:03:16;;;;;;;;;;;;;;;17.54;39.22;100720.06;5077846;28;1357;-58
2022/03/07 09:05:42;;;;;;;;;;;;;;;17.76;38.73;100730.69;5077095;28;1341;-57
2022/03/07 09:08:07;;;;;;;;;;;;;;;17.18;39.64;100722.94;5079274;28;1265;-57
2022/03/07 09:10:32;;;;;;;;;;;;;;;16.85;40.06;100727.91;5080584;28;1257;-56
2022/03/07 09:12:58;;;;;;;;;;;;;;;16.36;40.53;100721.88;5076692;28;1988;-60
2022/03/07 09:15:23;;;;;;;;;;;;;;;16.45;40.57;100719.41;5078557;28;1522;-58
2022/03/07 09:17:49;;;;;;;;;;;;;;;16.94;40.87;100726.28;5076248;28;1495;-56
2022/03/07 09:20:16;;;;;;;;;;;;;;;18.06;38.29;100727.00;5078833;28;1194;-55
2022/03/07 09:22:42;;;;;;;;;;;;;;;17.33;39.69;100727.56;5074692;28;1525;-56
2022/03/07 09:25:08;;;;;;;;;;;;;;;16.94;40.35;100731.75;5081357;28;1217;-59
2022/03/07 09:27:35;;;;;;;;;;;;;;;16.79;39.94;100723.50;5080165;28;1352;-58
2022/03/07 09:30:00;;;;;;;;;;;;;;;16.91;41.01;100732.31;5089895;28;1252;-56
2022/03/07 09:32:26;;;;;;;;;;;;;;;17.31;39.66;100725.09;5079152;28;1901;-56
2022/03/07 09:34:51;;;;;;;;;;;;;;;16.99;40.53;100723.53;5075889;28;1183;-59
2022/03/07 09:37:17;;;;;;;;;;;;;;;16.72;40.95;100716.41;5077538;28;1193;-60
2022/03/07 09:39:42;;;;;;;;;;;;;;;16.72;40.80;100719.13;5075804;28;1257;-59
2022/03/07 09:42:09;;;;;;;;;;;;;;;16.78;40.86;100717.22;5075045;28;1281;-58
2022/03/07 09:44:34;;;;;;;;;;;;;;;16.99;40.67;100714.47;5075604;28;1383;-57
2022/03/07 09:47:00;;;;;;;;;;;;;;;17.40;39.79;100728.94;5073693;28;1220;-57
2022/03/07 09:49:25;;;;;;;;;;;;;;;17.50;39.54;100732.72;5074135;28;1194;-59
2022/03/07 09:51:51;;;;;;;;;;;;;;;17.40;39.63;100720.69;5074900;28;2349;-58
2022/03/07 09:54:16;;;;;;;;;;;;;;;17.08;40.31;100719.13;5075965;28;1462;-58
2022/03/07 09:56:42;;;;;;;;;;;;;;;16.97;40.61;100728.50;5076525;28;1287;-58
2022/03/07 09:59:07;;;;;;;;;;;;;;;16.72;40.60;100715.59;5083193;28;1270;-56
2022/03/07 10:01:33;;;;;;;;;;;;;;;16.98;40.68;100724.63;5076282;28;1318;-57
2022/03/07 10:04:08;;;;;;;;;;;;;;;17.10;40.09;100724.34;5075823;28;1328;-57
2022/03/07 10:06:33;;;;;;;;;;;;;;;16.70;40.99;100726.81;5081761;28;1300;-57
2022/03/07 10:09:00;;;;;;;;;;;;;;;16.60;41.17;100716.66;5076290;28;1513;-58
2022/03/07 10:11:26;;;;;;;;;;;;;;;16.51;41.01;100728.47;5078314;28;1975;-58
2022/03/07 10:13:58;;;;;;;;;;;;;;;17.02;40.82;100728.47;5073273;28;1537;-59
2022/03/07 10:16:24;;;;;;;;;;;;;;;17.31;39.80;100719.59;5074955;28;1422;-59
2022/03/07 10:18:53;;;;;;;;;;;;;;;16.99;40.61;100714.47;5075096;28;1410;-59
2022/03/07 10:21:22;;;;;;;;;;;;;;;16.73;41.23;100719.94;5107518;27;1434;-59
2022/03/07 10:23:52;;;;;;;;;;;;;;;16.64;40.61;100716.94;5075890;28;1285;-59
2022/03/07 10:26:17;;;;;;;;;;;;;;;17.64;39.60;100709.00;5071207;28;1491;-59
2022/03/07 10:28:50;;;;;;;;;;;;;;;17.40;39.73;100706.09;5070335;28;1713;-58
2022/03/07 10:31:16;;;;;;;;;;;;;;;16.96;40.67;100710.34;5071366;28;1894;-57
2022/03/07 10:33:41;;;;;;;;;;;;;;;16.75;40.49;100704.84;5074592;28;1398;-58
2022/03/07 10:36:06;;;;;;;;;;;;;;;16.84;41.52;100712.53;5072986;28;1604;-57
2022/03/07 10:38:32;;;;;;;;;;;;;;;17.34;40.12;100702.53;5072314;28;1625;-56
2022/03/07 10:40:57;;;;;;;;;;;;;;;16.92;40.68;100706.50;5089018;28;1233;-56
2022/03/07 10:43:23;;;;;;;;;;;;;;;16.83;40.78;100714.47;5074744;28;1308;-59
2022/03/07 10:45:48;;;;;;;;;;;;;;;16.45;40.92;100710.34;5107035;28;1221;-56
2022/03/07 10:48:14;;;;;;;;;;;;;;;16.73;41.74;100708.97;5073553;28;1313;-58
2022/03/07 10:50:42;;;;;;;;;;;;;;;17.55;39.24;100700.53;5073140;28;1357;-57
2022/03/07 10:53:07;;;;;;;;;;;;;;;17.10;40.47;100694.13;5076857;28;1975;-57
2022/03/07 10:55:33;;;;;;;;;;;;;;;17.62;39.44;100698.28;5075704;28;1337;-57
2022/03/07 10:58:08;;;;;;;;;;;;;;;18.19;38.26;100699.91;5078460;28;1395;-58
2022/03/07 11:00:46;;;;;;;;;;;;;;;18.19;38.06;100700.75;5068547;28;1280;-56
2022/03/07 11:03:15;;;;;;;;;;;;;;;18.02;38.41;100698.41;5070763;28;1229;-57
2022/03/07 11:05:41;;;;;;;;;;;;;;;17.56;39.37;100690.38;5077460;28;1185;-56
2022/03/07 11:08:07;;;;;;;;;;;;;;;17.33;39.83;100695.41;5110277;27;1483;-58
2022/03/07 11:10:32;;;;;;;;;;;;;;;17.16;40.20;100686.69;5085933;28;1368;-58
2022/03/07 11:12:58;;;;;;;;;;;;;;;17.05;40.10;100683.13;5077937;28;1918;-57
2022/03/07 11:15:23;;;;;;;;;;;;;;;16.70;40.10;100693.06;5107577;27;1241;-57
2022/03/07 11:17:49;;;;;;;;;;;;;;;17.24;40.50;100686.09;5074895;28;1237;-57
2022/03/07 11:20:15;;;;;;;;;;;;;;;17.08;40.37;100683.41;5081602;28;1277;-56
2022/03/07 11:22:40;;;;;;;;;;;;;;;16.88;41.02;100675.19;5085877;28;1474;-58
2022/03/07 11:25:06;;;;;;;;;;;;;;;17.55;39.55;100674.97;5080362;28;1281;-57
2022/03/07 11:27:32;;;;;;;;;;;;;;;18.54;37.65;100673.22;5077894;28;1355;-58
2022/03/07 11:29:57;;;;;;;;;;;;;;;17.99;38.64;100667.88;5078656;28;1200;-58
2022/03/07 11:32:23;;;;;;;;;;;;;;;17.49;39.62;100665.09;5078488;28;1913;-55
2022/03/07 11:34:54;;;;;;;;;;;;;;;18.04;38.49;100673.34;5077902;28;1499;-56
2022/03/07 11:37:21;;;;;;;;;;;;;;;18.47;37.79;100671.63;5081971;28;1483;-57
2022/03/07 11:39:46;;;;;;;;;;;;;;;18.35;37.76;100660.16;5076847;28;1313;-56
2022/03/07 11:42:13;;;;;;;;;;;;;;;18.26;38.00;100670.16;5076774;28;1466;-56
2022/03/07 11:44:40;;;;;;;;;;;;;;;17.96;38.49;100669.25;5077371;28;1256;-55
2022/03/07 11:47:09;;;;;;;;;;;;;;;17.52;39.32;100667.31;5078319;28;1246;-55
2022/03/07 11:49:34;;;;;;;;;;;;;;;16.98;39.80;100666.13;5077114;28;1191;-55
2022/03/07 11:52:01;;;;;;;;;;;;;;;16.83;40.56;100666.94;5077447;28;1906;-55
2022/03/07 11:54:26;;;;;;;;;;;;;;;17.31;40.74;100672.88;5076253;28;1288;-55
2022/03/07 11:56:52;;;;;;;;;;;;;;;18.09;38.69;100674.13;5074800;28;1569;-57
2022/03/07 11:59:27;;;;;;;;;;;;;;;18.54;37.70;100664.97;5079705;28;1280;-57
2022/03/07 12:01:53;;;;;;;;;;;;;;;18.84;37.45;100668.53;5077053;28;1089;-57
2022/03/07 12:04:18;;;;;;;;;;;;;;;18.90;37.08;100664.63;5077797;28;1205;-57
2022/03/07 12:06:45;;;;;;;;;;;;;;;18.46;37.80;100661.69;5077502;28;1241;-55
2022/03/07 12:09:10;;;;;;;;;;;;;;;18.04;38.88;100682.41;5081808;28;1167;-55
2022/03/07 12:11:36;;;;;;;;;;;;;;;17.65;39.64;100658.41;5079186;28;1909;-55
2022/03/07 12:14:03;;;;;;;;;;;;;;;17.35;39.62;100653.88;5078588;28;904;-55
2022/03/07 12:16:29;;;;;;;;;;;;;;;16.97;40.30;100653.47;5075655;28;1322;-58
2022/03/07 12:19:04;;;;;;;;;;;;;;;16.86;40.80;100655.41;5078071;28;1328;-57
2022/03/07 12:21:30;;;;;;;;;;;;;;;17.44;40.37;100663.19;5080229;28;1221;-58
2022/03/07 12:23:55;;;;;;;;;;;;;;;18.70;37.42;100666.44;5078450;28;987;-58
2022/03/07 12:26:20;;;;;;;;;;;;;;;18.53;37.69;100660.56;5075439;28;1357;-58
2022/03/07 12:28:47;;;;;;;;;;;;;;;17.92;38.85;100652.50;5077664;28;1201;-57
2022/03/07 12:31:13;;;;;;;;;;;;;;;17.66;39.35;100657.31;5077275;28;1967;-58
2022/03/07 12:33:41;;;;;;;;;;;;;;;17.38;39.94;100665.16;5077649;28;1244;-58
2022/03/07 12:36:09;;;;;;;;;;;;;;;17.11;39.93;100665.53;5076685;28;1290;-57
2022/03/07 12:38:42;;;;;;;;;;;;;;;16.94;40.50;100665.84;5076298;28;1435;-57
2022/03/07 12:41:09;;;;;;;;;;;;;;;17.59;39.96;100659.56;5076743;28;1258;-58
2022/03/07 12:43:34;;;;;;;;;;;;;;;18.67;37.43;100660.72;5081980;28;1265;-57